sensor_id;sensor_type;location;lat;lon;timestamp;P1;durP1;ratioP1;P2;durP2;ratioP2
13408;SDS011;6775;49.574;11.170;2023-03-19T00:00:50;4.43;;;3.20;;
13408;SDS011;6775;49.574;11.170;2023-03-19T00:03:18;3.77;;;3.00;;
13408;SDS011;6775;49.574;11.170;2023-03-19T00:05:49;5.83;;;3.17;;
13408;SDS011;6775;49.574;11.170;2023-03-19T00:08:18;3.57;;;3.17;;
13408;SDS011;6775;49.574;11.170;2023-03-19T00:10:46;5.03;;;3.20;;
13408;SDS011;6775;49.574;11.170;2023-03-19T00:13:15;4.30;;;3.00;;
13408;SDS011;6775;49.574;11.170;2023-03-19T00:15:43;3.53;;;3.23;;
13408;SDS011;6775;49.574;11.170;2023-03-19T00:18:11;4.27;;;3.40;;
13408;SDS011;6775;49.574;11.170;2023-03-19T00:20:39;4.30;;;3.57;;
13408;SDS011;6775;49.574;11.170;2023-03-19T00:23:07;4.83;;;3.87;;
13408;SDS011;6775;49.574;11.170;2023-03-19T00:25:35;5.00;;;3.50;;
13408;SDS011;6775;49.574;11.170;2023-03-19T00:28:03;7.17;;;3.30;;
13408;SDS011;6775;49.574;11.170;2023-03-19T00:30:32;3.90;;;3.00;;
13408;SDS011;6775;49.574;11.170;2023-03-19T00:33:00;5.03;;;3.63;;
13408;SDS011;6775;49.574;11.170;2023-03-19T00:35:28;5.93;;;3.73;;
13408;SDS011;6775;49.574;11.170;2023-03-19T00:37:57;6.60;;;3.90;;
13408;SDS011;6775;49.574;11.170;2023-03-19T00:40:24;5.37;;;3.33;;
13408;SDS011;6775;49.574;11.170;2023-03-19T00:42:52;5.57;;;3.53;;
13408;SDS011;6775;49.574;11.170;2023-03-19T00:45:20;4.83;;;3.40;;
13408;SDS011;6775;49.574;11.170;2023-03-19T00:47:50;5.77;;;3.60;;
13408;SDS011;6775;49.574;11.170;2023-03-19T00:50:18;5.47;;;3.70;;
13408;SDS011;6775;49.574;11.170;2023-03-19T00:52:45;3.93;;;3.30;;
13408;SDS011;6775;49.574;11.170;2023-03-19T00:55:13;5.03;;;3.60;;
13408;SDS011;6775;49.574;11.170;2023-03-19T00:57:41;4.30;;;3.67;;
13408;SDS011;6775;49.574;11.170;2023-03-19T01:00:09;4.70;;;3.50;;
13408;SDS011;6775;49.574;11.170;2023-03-19T01:02:39;4.60;;;3.30;;
13408;SDS011;6775;49.574;11.170;2023-03-19T01:05:08;4.37;;;3.50;;
13408;SDS011;6775;49.574;11.170;2023-03-19T01:07:36;3.50;;;3.20;;
13408;SDS011;6775;49.574;11.170;2023-03-19T01:10:04;4.07;;;3.60;;
13408;SDS011;6775;49.574;11.170;2023-03-19T01:12:32;5.17;;;4.23;;
13408;SDS011;6775;49.574;11.170;2023-03-19T01:15:00;6.27;;;3.03;;
13408;SDS011;6775;49.574;11.170;2023-03-19T01:17:28;5.37;;;4.10;;
13408;SDS011;6775;49.574;11.170;2023-03-19T01:19:56;4.17;;;3.73;;
13408;SDS011;6775;49.574;11.170;2023-03-19T01:22:25;3.70;;;3.33;;
13408;SDS011;6775;49.574;11.170;2023-03-19T01:24:53;4.73;;;3.70;;
13408;SDS011;6775;49.574;11.170;2023-03-19T01:27:21;5.70;;;3.97;;
13408;SDS011;6775;49.574;11.170;2023-03-19T01:29:49;4.83;;;3.67;;
13408;SDS011;6775;49.574;11.170;2023-03-19T01:32:17;4.43;;;3.47;;
13408;SDS011;6775;49.574;11.170;2023-03-19T01:34:45;5.13;;;3.33;;
13408;SDS011;6775;49.574;11.170;2023-03-19T01:37:12;6.10;;;3.33;;
13408;SDS011;6775;49.574;11.170;2023-03-19T01:39:42;4.40;;;3.73;;
13408;SDS011;6775;49.574;11.170;2023-03-19T01:42:10;4.93;;;3.90;;
13408;SDS011;6775;49.574;11.170;2023-03-19T01:44:39;5.30;;;3.57;;
13408;SDS011;6775;49.574;11.170;2023-03-19T01:47:13;6.13;;;4.10;;
13408;SDS011;6775;49.574;11.170;2023-03-19T01:49:45;5.90;;;3.97;;
13408;SDS011;6775;49.574;11.170;2023-03-19T01:52:16;4.73;;;3.80;;
13408;SDS011;6775;49.574;11.170;2023-03-19T01:54:46;4.80;;;3.67;;
13408;SDS011;6775;49.574;11.170;2023-03-19T01:57:14;4.67;;;4.10;;
13408;SDS011;6775;49.574;11.170;2023-03-19T01:59:43;5.57;;;3.40;;
13408;SDS011;6775;49.574;11.170;2023-03-19T02:02:15;4.03;;;3.40;;
13408;SDS011;6775;49.574;11.170;2023-03-19T02:04:51;5.67;;;3.67;;
13408;SDS011;6775;49.574;11.170;2023-03-19T02:07:23;5.93;;;4.37;;
13408;SDS011;6775;49.574;11.170;2023-03-19T02:09:53;5.87;;;4.40;;
13408;SDS011;6775;49.574;11.170;2023-03-19T02:12:21;6.97;;;4.80;;
13408;SDS011;6775;49.574;11.170;2023-03-19T02:14:49;6.10;;;4.60;;
13408;SDS011;6775;49.574;11.170;2023-03-19T02:17:17;5.70;;;4.30;;
13408;SDS011;6775;49.574;11.170;2023-03-19T02:19:47;7.33;;;4.60;;
13408;SDS011;6775;49.574;11.170;2023-03-19T02:22:21;4.57;;;3.83;;
13408;SDS011;6775;49.574;11.170;2023-03-19T02:24:52;6.87;;;4.20;;
13408;SDS011;6775;49.574;11.170;2023-03-19T02:27:27;4.90;;;4.07;;
13408;SDS011;6775;49.574;11.170;2023-03-19T02:29:55;5.27;;;3.70;;
13408;SDS011;6775;49.574;11.170;2023-03-19T02:32:23;6.93;;;4.30;;
13408;SDS011;6775;49.574;11.170;2023-03-19T02:34:52;5.97;;;4.00;;
13408;SDS011;6775;49.574;11.170;2023-03-19T02:37:21;5.73;;;4.37;;
13408;SDS011;6775;49.574;11.170;2023-03-19T02:39:53;5.40;;;4.17;;
13408;SDS011;6775;49.574;11.170;2023-03-19T02:42:24;7.20;;;4.63;;
13408;SDS011;6775;49.574;11.170;2023-03-19T02:44:55;5.77;;;4.50;;
13408;SDS011;6775;49.574;11.170;2023-03-19T02:47:25;5.97;;;4.37;;
13408;SDS011;6775;49.574;11.170;2023-03-19T02:49:53;5.70;;;4.50;;
13408;SDS011;6775;49.574;11.170;2023-03-19T02:52:21;6.27;;;4.40;;
13408;SDS011;6775;49.574;11.170;2023-03-19T02:54:49;5.50;;;4.67;;
13408;SDS011;6775;49.574;11.170;2023-03-19T02:57:17;5.47;;;4.30;;
13408;SDS011;6775;49.574;11.170;2023-03-19T02:59:46;6.70;;;4.60;;
13408;SDS011;6775;49.574;11.170;2023-03-19T03:02:14;5.07;;;4.10;;
13408;SDS011;6775;49.574;11.170;2023-03-19T03:04:42;5.57;;;4.43;;
13408;SDS011;6775;49.574;11.170;2023-03-19T03:07:10;6.57;;;3.93;;
13408;SDS011;6775;49.574;11.170;2023-03-19T03:09:38;6.33;;;4.47;;
13408;SDS011;6775;49.574;11.170;2023-03-19T03:12:06;5.93;;;4.50;;
13408;SDS011;6775;49.574;11.170;2023-03-19T03:14:35;7.33;;;4.63;;
13408;SDS011;6775;49.574;11.170;2023-03-19T03:17:04;6.63;;;4.30;;
13408;SDS011;6775;49.574;11.170;2023-03-19T03:19:33;6.53;;;4.37;;
13408;SDS011;6775;49.574;11.170;2023-03-19T03:22:01;7.03;;;4.70;;
13408;SDS011;6775;49.574;11.170;2023-03-19T03:24:29;6.00;;;4.47;;
13408;SDS011;6775;49.574;11.170;2023-03-19T03:26:57;7.67;;;4.03;;
13408;SDS011;6775;49.574;11.170;2023-03-19T03:29:24;5.00;;;4.37;;
13408;SDS011;6775;49.574;11.170;2023-03-19T03:31:52;5.63;;;4.30;;
13408;SDS011;6775;49.574;11.170;2023-03-19T03:34:22;7.17;;;4.10;;
13408;SDS011;6775;49.574;11.170;2023-03-19T03:36:49;5.57;;;4.20;;
13408;SDS011;6775;49.574;11.170;2023-03-19T03:39:17;5.67;;;4.30;;
13408;SDS011;6775;49.574;11.170;2023-03-19T03:41:45;4.90;;;4.33;;
13408;SDS011;6775;49.574;11.170;2023-03-19T03:44:13;5.17;;;3.90;;
13408;SDS011;6775;49.574;11.170;2023-03-19T03:46:40;5.50;;;4.13;;
13408;SDS011;6775;49.574;11.170;2023-03-19T03:49:09;7.40;;;4.87;;
13408;SDS011;6775;49.574;11.170;2023-03-19T03:51:38;5.50;;;4.40;;
13408;SDS011;6775;49.574;11.170;2023-03-19T03:54:07;8.50;;;5.30;;
13408;SDS011;6775;49.574;11.170;2023-03-19T03:56:35;9.23;;;5.13;;
13408;SDS011;6775;49.574;11.170;2023-03-19T03:59:02;5.67;;;4.27;;
13408;SDS011;6775;49.574;11.170;2023-03-19T04:01:30;7.00;;;4.87;;
13408;SDS011;6775;49.574;11.170;2023-03-19T04:03:59;6.23;;;4.60;;
13408;SDS011;6775;49.574;11.170;2023-03-19T04:06:27;6.13;;;4.40;;
13408;SDS011;6775;49.574;11.170;2023-03-19T04:08:56;6.27;;;4.57;;
13408;SDS011;6775;49.574;11.170;2023-03-19T04:11:24;6.40;;;4.63;;
13408;SDS011;6775;49.574;11.170;2023-03-19T04:13:53;6.07;;;4.40;;
13408;SDS011;6775;49.574;11.170;2023-03-19T04:16:21;6.40;;;4.97;;
13408;SDS011;6775;49.574;11.170;2023-03-19T04:18:49;5.80;;;4.40;;
13408;SDS011;6775;49.574;11.170;2023-03-19T04:21:17;5.57;;;4.33;;
13408;SDS011;6775;49.574;11.170;2023-03-19T04:23:46;7.23;;;4.73;;
13408;SDS011;6775;49.574;11.170;2023-03-19T04:26:15;6.27;;;4.57;;
13408;SDS011;6775;49.574;11.170;2023-03-19T04:28:43;8.17;;;5.40;;
13408;SDS011;6775;49.574;11.170;2023-03-19T04:31:11;5.57;;;4.53;;
13408;SDS011;6775;49.574;11.170;2023-03-19T04:33:39;5.57;;;4.57;;
13408;SDS011;6775;49.574;11.170;2023-03-19T04:36:07;7.33;;;4.50;;
13408;SDS011;6775;49.574;11.170;2023-03-19T04:38:35;8.07;;;4.97;;
13408;SDS011;6775;49.574;11.170;2023-03-19T04:41:03;6.53;;;4.80;;
13408;SDS011;6775;49.574;11.170;2023-03-19T04:43:32;5.23;;;4.27;;
13408;SDS011;6775;49.574;11.170;2023-03-19T04:46:00;7.13;;;4.67;;
13408;SDS011;6775;49.574;11.170;2023-03-19T04:48:28;6.80;;;4.20;;
13408;SDS011;6775;49.574;11.170;2023-03-19T04:50:57;5.33;;;4.23;;
13408;SDS011;6775;49.574;11.170;2023-03-19T04:53:25;5.67;;;4.50;;
13408;SDS011;6775;49.574;11.170;2023-03-19T04:55:53;5.60;;;4.97;;
13408;SDS011;6775;49.574;11.170;2023-03-19T04:58:21;6.83;;;4.70;;
13408;SDS011;6775;49.574;11.170;2023-03-19T05:00:50;6.33;;;4.73;;
13408;SDS011;6775;49.574;11.170;2023-03-19T05:03:19;5.43;;;4.53;;
13408;SDS011;6775;49.574;11.170;2023-03-19T05:05:47;7.33;;;4.83;;
13408;SDS011;6775;49.574;11.170;2023-03-19T05:08:15;6.90;;;4.73;;
13408;SDS011;6775;49.574;11.170;2023-03-19T05:10:43;6.43;;;4.40;;
13408;SDS011;6775;49.574;11.170;2023-03-19T05:13:11;6.70;;;4.33;;
13408;SDS011;6775;49.574;11.170;2023-03-19T05:15:40;5.80;;;4.83;;
13408;SDS011;6775;49.574;11.170;2023-03-19T05:18:10;6.87;;;4.67;;
13408;SDS011;6775;49.574;11.170;2023-03-19T05:20:38;7.50;;;5.00;;
13408;SDS011;6775;49.574;11.170;2023-03-19T05:23:07;6.97;;;5.23;;
13408;SDS011;6775;49.574;11.170;2023-03-19T05:25:35;5.70;;;4.73;;
13408;SDS011;6775;49.574;11.170;2023-03-19T05:28:03;6.77;;;5.23;;
13408;SDS011;6775;49.574;11.170;2023-03-19T05:30:32;6.20;;;4.70;;
13408;SDS011;6775;49.574;11.170;2023-03-19T05:33:01;6.87;;;5.00;;
13408;SDS011;6775;49.574;11.170;2023-03-19T05:35:30;5.97;;;4.70;;
13408;SDS011;6775;49.574;11.170;2023-03-19T05:37:58;6.97;;;4.77;;
13408;SDS011;6775;49.574;11.170;2023-03-19T05:40:26;6.53;;;4.70;;
13408;SDS011;6775;49.574;11.170;2023-03-19T05:42:54;7.00;;;5.20;;
13408;SDS011;6775;49.574;11.170;2023-03-19T05:45:21;8.17;;;4.80;;
13408;SDS011;6775;49.574;11.170;2023-03-19T05:47:49;7.33;;;4.97;;
13408;SDS011;6775;49.574;11.170;2023-03-19T05:50:17;6.00;;;4.97;;
13408;SDS011;6775;49.574;11.170;2023-03-19T05:52:46;6.47;;;4.83;;
13408;SDS011;6775;49.574;11.170;2023-03-19T05:55:14;5.00;;;4.47;;
13408;SDS011;6775;49.574;11.170;2023-03-19T05:57:42;5.23;;;4.17;;
13408;SDS011;6775;49.574;11.170;2023-03-19T06:00:11;5.93;;;4.90;;
13408;SDS011;6775;49.574;11.170;2023-03-19T06:02:41;6.47;;;5.00;;
13408;SDS011;6775;49.574;11.170;2023-03-19T06:05:09;4.50;;;3.83;;
13408;SDS011;6775;49.574;11.170;2023-03-19T06:07:37;7.07;;;4.93;;
13408;SDS011;6775;49.574;11.170;2023-03-19T06:10:07;6.43;;;4.67;;
13408;SDS011;6775;49.574;11.170;2023-03-19T06:12:36;6.40;;;4.40;;
13408;SDS011;6775;49.574;11.170;2023-03-19T06:15:04;6.70;;;4.80;;
13408;SDS011;6775;49.574;11.170;2023-03-19T06:17:34;5.83;;;4.53;;
13408;SDS011;6775;49.574;11.170;2023-03-19T06:20:02;4.97;;;4.50;;
13408;SDS011;6775;49.574;11.170;2023-03-19T06:22:30;5.90;;;4.70;;
13408;SDS011;6775;49.574;11.170;2023-03-19T06:24:58;6.27;;;4.93;;
13408;SDS011;6775;49.574;11.170;2023-03-19T06:27:27;7.80;;;4.97;;
13408;SDS011;6775;49.574;11.170;2023-03-19T06:29:55;6.03;;;5.10;;
13408;SDS011;6775;49.574;11.170;2023-03-19T06:32:23;5.80;;;4.70;;
13408;SDS011;6775;49.574;11.170;2023-03-19T06:34:50;6.00;;;4.70;;
13408;SDS011;6775;49.574;11.170;2023-03-19T06:37:20;5.93;;;4.77;;
13408;SDS011;6775;49.574;11.170;2023-03-19T06:39:48;6.93;;;5.10;;
13408;SDS011;6775;49.574;11.170;2023-03-19T06:42:16;8.00;;;5.00;;
13408;SDS011;6775;49.574;11.170;2023-03-19T06:44:45;6.90;;;5.53;;
13408;SDS011;6775;49.574;11.170;2023-03-19T06:47:13;5.90;;;4.93;;
13408;SDS011;6775;49.574;11.170;2023-03-19T06:49:41;6.73;;;4.73;;
13408;SDS011;6775;49.574;11.170;2023-03-19T06:52:09;5.33;;;4.30;;
13408;SDS011;6775;49.574;11.170;2023-03-19T06:54:36;7.80;;;5.13;;
13408;SDS011;6775;49.574;11.170;2023-03-19T06:57:04;6.37;;;4.40;;
13408;SDS011;6775;49.574;11.170;2023-03-19T06:59:32;6.90;;;5.20;;
13408;SDS011;6775;49.574;11.170;2023-03-19T07:02:01;6.67;;;4.93;;
13408;SDS011;6775;49.574;11.170;2023-03-19T07:04:29;7.37;;;4.40;;
13408;SDS011;6775;49.574;11.170;2023-03-19T07:06:57;6.80;;;5.13;;
13408;SDS011;6775;49.574;11.170;2023-03-19T07:09:25;5.30;;;4.60;;
13408;SDS011;6775;49.574;11.170;2023-03-19T07:11:53;5.80;;;5.20;;
13408;SDS011;6775;49.574;11.170;2023-03-19T07:14:21;6.13;;;5.33;;
13408;SDS011;6775;49.574;11.170;2023-03-19T07:16:49;7.37;;;5.00;;
13408;SDS011;6775;49.574;11.170;2023-03-19T07:19:19;6.40;;;5.23;;
13408;SDS011;6775;49.574;11.170;2023-03-19T07:21:47;5.10;;;4.37;;
13408;SDS011;6775;49.574;11.170;2023-03-19T07:24:14;5.93;;;4.53;;
13408;SDS011;6775;49.574;11.170;2023-03-19T07:26:42;6.00;;;4.90;;
13408;SDS011;6775;49.574;11.170;2023-03-19T07:29:11;6.20;;;5.00;;
13408;SDS011;6775;49.574;11.170;2023-03-19T07:31:39;5.00;;;3.90;;
13408;SDS011;6775;49.574;11.170;2023-03-19T07:34:07;5.03;;;3.90;;
13408;SDS011;6775;49.574;11.170;2023-03-19T07:36:36;6.70;;;4.53;;
13408;SDS011;6775;49.574;11.170;2023-03-19T07:39:04;6.47;;;4.80;;
13408;SDS011;6775;49.574;11.170;2023-03-19T07:41:32;5.37;;;4.13;;
13408;SDS011;6775;49.574;11.170;2023-03-19T07:44:00;6.73;;;4.90;;
13408;SDS011;6775;49.574;11.170;2023-03-19T07:46:27;5.30;;;4.80;;
13408;SDS011;6775;49.574;11.170;2023-03-19T07:48:55;6.50;;;4.80;;
13408;SDS011;6775;49.574;11.170;2023-03-19T07:51:23;5.23;;;4.73;;
13408;SDS011;6775;49.574;11.170;2023-03-19T07:53:52;6.70;;;4.60;;
13408;SDS011;6775;49.574;11.170;2023-03-19T07:56:20;5.67;;;4.93;;
13408;SDS011;6775;49.574;11.170;2023-03-19T07:58:48;5.20;;;4.50;;
13408;SDS011;6775;49.574;11.170;2023-03-19T08:01:16;6.13;;;4.57;;
13408;SDS011;6775;49.574;11.170;2023-03-19T08:03:44;6.53;;;4.93;;
13408;SDS011;6775;49.574;11.170;2023-03-19T08:06:13;5.00;;;4.40;;
13408;SDS011;6775;49.574;11.170;2023-03-19T08:08:41;7.20;;;4.70;;
13408;SDS011;6775;49.574;11.170;2023-03-19T08:11:10;7.40;;;4.83;;
13408;SDS011;6775;49.574;11.170;2023-03-19T08:13:38;8.30;;;5.40;;
13408;SDS011;6775;49.574;11.170;2023-03-19T08:16:06;7.20;;;5.63;;
13408;SDS011;6775;49.574;11.170;2023-03-19T08:18:33;9.17;;;6.30;;
13408;SDS011;6775;49.574;11.170;2023-03-19T08:21:01;9.07;;;6.33;;
13408;SDS011;6775;49.574;11.170;2023-03-19T08:23:29;10.07;;;6.83;;
13408;SDS011;6775;49.574;11.170;2023-03-19T08:25:58;8.40;;;6.43;;
13408;SDS011;6775;49.574;11.170;2023-03-19T08:28:27;7.33;;;6.20;;
13408;SDS011;6775;49.574;11.170;2023-03-19T08:30:55;5.20;;;4.70;;
13408;SDS011;6775;49.574;11.170;2023-03-19T08:33:23;5.70;;;4.57;;
13408;SDS011;6775;49.574;11.170;2023-03-19T08:35:51;4.70;;;4.20;;
13408;SDS011;6775;49.574;11.170;2023-03-19T08:38:19;4.97;;;4.03;;
13408;SDS011;6775;49.574;11.170;2023-03-19T08:40:46;3.30;;;2.90;;
13408;SDS011;6775;49.574;11.170;2023-03-19T08:43:14;3.03;;;2.73;;
13408;SDS011;6775;49.574;11.170;2023-03-19T08:45:43;2.80;;;2.50;;
13408;SDS011;6775;49.574;11.170;2023-03-19T08:48:11;2.50;;;2.30;;
13408;SDS011;6775;49.574;11.170;2023-03-19T08:50:39;5.17;;;3.57;;
13408;SDS011;6775;49.574;11.170;2023-03-19T08:53:06;3.77;;;3.07;;
13408;SDS011;6775;49.574;11.170;2023-03-19T08:55:34;4.70;;;3.03;;
13408;SDS011;6775;49.574;11.170;2023-03-19T08:58:02;4.40;;;2.57;;
13408;SDS011;6775;49.574;11.170;2023-03-19T09:00:30;3.27;;;2.97;;
13408;SDS011;6775;49.574;11.170;2023-03-19T09:03:00;2.97;;;2.60;;
13408;SDS011;6775;49.574;11.170;2023-03-19T09:05:28;3.33;;;2.87;;
13408;SDS011;6775;49.574;11.170;2023-03-19T09:07:55;3.63;;;2.53;;
13408;SDS011;6775;49.574;11.170;2023-03-19T09:10:23;2.77;;;2.57;;
13408;SDS011;6775;49.574;11.170;2023-03-19T09:12:51;4.93;;;2.80;;
13408;SDS011;6775;49.574;11.170;2023-03-19T09:15:19;3.70;;;2.73;;
13408;SDS011;6775;49.574;11.170;2023-03-19T09:17:47;2.87;;;2.67;;
13408;SDS011;6775;49.574;11.170;2023-03-19T09:20:16;3.17;;;2.80;;
13408;SDS011;6775;49.574;11.170;2023-03-19T09:22:44;2.67;;;2.43;;
13408;SDS011;6775;49.574;11.170;2023-03-19T09:25:12;9.10;;;6.40;;
13408;SDS011;6775;49.574;11.170;2023-03-19T09:27:40;6.37;;;4.63;;
13408;SDS011;6775;49.574;11.170;2023-03-19T09:30:08;4.50;;;3.87;;
13408;SDS011;6775;49.574;11.170;2023-03-19T09:32:37;6.23;;;4.20;;
13408;SDS011;6775;49.574;11.170;2023-03-19T09:35:06;5.50;;;3.93;;
13408;SDS011;6775;49.574;11.170;2023-03-19T09:37:35;4.40;;;3.67;;
13408;SDS011;6775;49.574;11.170;2023-03-19T09:40:04;3.93;;;3.53;;
13408;SDS011;6775;49.574;11.170;2023-03-19T09:42:43;5.27;;;4.37;;
13408;SDS011;6775;49.574;11.170;2023-03-19T09:45:17;5.13;;;3.60;;
13408;SDS011;6775;49.574;11.170;2023-03-19T09:47:48;3.93;;;3.37;;
13408;SDS011;6775;49.574;11.170;2023-03-19T09:50:19;4.60;;;3.40;;
13408;SDS011;6775;49.574;11.170;2023-03-19T09:52:52;3.43;;;3.10;;
13408;SDS011;6775;49.574;11.170;2023-03-19T09:55:30;3.63;;;3.07;;
13408;SDS011;6775;49.574;11.170;2023-03-19T09:58:09;3.50;;;2.67;;
13408;SDS011;6775;49.574;11.170;2023-03-19T10:00:41;2.67;;;2.47;;
13408;SDS011;6775;49.574;11.170;2023-03-19T10:03:14;2.73;;;2.47;;
13408;SDS011;6775;49.574;11.170;2023-03-19T10:06:01;2.27;;;2.03;;
13408;SDS011;6775;49.574;11.170;2023-03-19T10:08:56;2.90;;;2.13;;
13408;SDS011;6775;49.574;11.170;2023-03-19T10:11:33;2.67;;;2.40;;
13408;SDS011;6775;49.574;11.170;2023-03-19T10:14:11;1.90;;;1.70;;
13408;SDS011;6775;49.574;11.170;2023-03-19T10:16:53;2.07;;;1.80;;
13408;SDS011;6775;49.574;11.170;2023-03-19T10:19:28;2.00;;;1.80;;
13408;SDS011;6775;49.574;11.170;2023-03-19T10:22:06;2.23;;;2.00;;
13408;SDS011;6775;49.574;11.170;2023-03-19T10:24:40;2.73;;;1.50;;
13408;SDS011;6775;49.574;11.170;2023-03-19T10:27:11;1.87;;;1.77;;
13408;SDS011;6775;49.574;11.170;2023-03-19T10:29:41;1.50;;;1.40;;
13408;SDS011;6775;49.574;11.170;2023-03-19T10:32:12;3.00;;;2.20;;
13408;SDS011;6775;49.574;11.170;2023-03-19T10:34:44;1.93;;;1.77;;
13408;SDS011;6775;49.574;11.170;2023-03-19T10:37:14;6.37;;;4.23;;
13408;SDS011;6775;49.574;11.170;2023-03-19T10:39:47;4.50;;;3.27;;
13408;SDS011;6775;49.574;11.170;2023-03-19T10:42:30;4.67;;;3.40;;
13408;SDS011;6775;49.574;11.170;2023-03-19T10:45:08;3.00;;;2.40;;
13408;SDS011;6775;49.574;11.170;2023-03-19T10:47:41;3.63;;;2.53;;
13408;SDS011;6775;49.574;11.170;2023-03-19T10:50:10;2.73;;;2.07;;
13408;SDS011;6775;49.574;11.170;2023-03-19T10:52:42;3.00;;;2.10;;
13408;SDS011;6775;49.574;11.170;2023-03-19T10:55:14;3.10;;;2.60;;
13408;SDS011;6775;49.574;11.170;2023-03-19T10:57:44;3.80;;;2.30;;
13408;SDS011;6775;49.574;11.170;2023-03-19T11:00:16;2.30;;;1.80;;
13408;SDS011;6775;49.574;11.170;2023-03-19T11:02:47;2.30;;;2.10;;
13408;SDS011;6775;49.574;11.170;2023-03-19T11:05:24;2.20;;;1.70;;
13408;SDS011;6775;49.574;11.170;2023-03-19T11:07:57;4.10;;;1.90;;
13408;SDS011;6775;49.574;11.170;2023-03-19T11:10:28;1.80;;;1.70;;
13408;SDS011;6775;49.574;11.170;2023-03-19T11:12:58;2.40;;;1.97;;
13408;SDS011;6775;49.574;11.170;2023-03-19T11:15:32;3.37;;;1.90;;
13408;SDS011;6775;49.574;11.170;2023-03-19T11:18:05;3.43;;;2.37;;
13408;SDS011;6775;49.574;11.170;2023-03-19T11:20:36;2.43;;;2.23;;
13408;SDS011;6775;49.574;11.170;2023-03-19T11:23:05;3.00;;;2.70;;
13408;SDS011;6775;49.574;11.170;2023-03-19T11:25:39;3.10;;;2.43;;
13408;SDS011;6775;49.574;11.170;2023-03-19T11:28:12;3.77;;;3.07;;
13408;SDS011;6775;49.574;11.170;2023-03-19T11:30:48;3.83;;;2.80;;
13408;SDS011;6775;49.574;11.170;2023-03-19T11:33:35;3.43;;;2.57;;
13408;SDS011;6775;49.574;11.170;2023-03-19T11:36:15;3.73;;;3.13;;
13408;SDS011;6775;49.574;11.170;2023-03-19T11:38:52;5.43;;;3.70;;
13408;SDS011;6775;49.574;11.170;2023-03-19T11:41:32;3.93;;;3.40;;
13408;SDS011;6775;49.574;11.170;2023-03-19T11:44:13;2.60;;;2.40;;
13408;SDS011;6775;49.574;11.170;2023-03-19T11:46:46;4.23;;;2.40;;
13408;SDS011;6775;49.574;11.170;2023-03-19T11:49:26;4.07;;;3.03;;
13408;SDS011;6775;49.574;11.170;2023-03-19T11:52:12;3.43;;;2.70;;
13408;SDS011;6775;49.574;11.170;2023-03-19T11:54:48;2.57;;;2.37;;
13408;SDS011;6775;49.574;11.170;2023-03-19T11:57:28;4.07;;;2.57;;
13408;SDS011;6775;49.574;11.170;2023-03-19T12:00:08;2.10;;;1.87;;
13408;SDS011;6775;49.574;11.170;2023-03-19T12:02:54;2.30;;;2.10;;
13408;SDS011;6775;49.574;11.170;2023-03-19T12:05:40;2.47;;;2.20;;
13408;SDS011;6775;49.574;11.170;2023-03-19T12:08:20;2.37;;;2.17;;
13408;SDS011;6775;49.574;11.170;2023-03-19T12:10:59;2.87;;;2.43;;
13408;SDS011;6775;49.574;11.170;2023-03-19T12:13:36;2.83;;;2.20;;
13408;SDS011;6775;49.574;11.170;2023-03-19T12:16:14;2.10;;;1.90;;
13408;SDS011;6775;49.574;11.170;2023-03-19T12:19:01;3.17;;;2.80;;
13408;SDS011;6775;49.574;11.170;2023-03-19T12:21:40;3.43;;;2.03;;
13408;SDS011;6775;49.574;11.170;2023-03-19T12:24:20;2.20;;;2.00;;
13408;SDS011;6775;49.574;11.170;2023-03-19T12:27:02;2.73;;;1.90;;
13408;SDS011;6775;49.574;11.170;2023-03-19T12:29:48;2.57;;;1.80;;
13408;SDS011;6775;49.574;11.170;2023-03-19T12:32:25;2.57;;;1.83;;
13408;SDS011;6775;49.574;11.170;2023-03-19T12:35:08;2.43;;;1.67;;
13408;SDS011;6775;49.574;11.170;2023-03-19T12:37:41;4.47;;;1.90;;
13408;SDS011;6775;49.574;11.170;2023-03-19T12:40:14;2.17;;;1.50;;
13408;SDS011;6775;49.574;11.170;2023-03-19T12:42:52;1.83;;;1.70;;
13408;SDS011;6775;49.574;11.170;2023-03-19T12:45:27;2.07;;;1.33;;
13408;SDS011;6775;49.574;11.170;2023-03-19T12:47:59;1.57;;;1.40;;
13408;SDS011;6775;49.574;11.170;2023-03-19T12:50:34;2.10;;;1.53;;
13408;SDS011;6775;49.574;11.170;2023-03-19T12:53:06;1.40;;;1.30;;
13408;SDS011;6775;49.574;11.170;2023-03-19T12:55:39;1.70;;;1.60;;
13408;SDS011;6775;49.574;11.170;2023-03-19T12:58:12;1.70;;;1.40;;
13408;SDS011;6775;49.574;11.170;2023-03-19T13:00:47;1.87;;;1.60;;
13408;SDS011;6775;49.574;11.170;2023-03-19T13:03:21;2.00;;;1.60;;
13408;SDS011;6775;49.574;11.170;2023-03-19T13:05:52;1.70;;;1.50;;
13408;SDS011;6775;49.574;11.170;2023-03-19T13:08:26;1.83;;;1.63;;
13408;SDS011;6775;49.574;11.170;2023-03-19T13:10:57;1.40;;;1.30;;
13408;SDS011;6775;49.574;11.170;2023-03-19T13:13:29;2.27;;;2.00;;
13408;SDS011;6775;49.574;11.170;2023-03-19T13:16:05;1.50;;;1.40;;
13408;SDS011;6775;49.574;11.170;2023-03-19T13:18:42;1.90;;;1.70;;
13408;SDS011;6775;49.574;11.170;2023-03-19T13:21:20;1.70;;;1.60;;
13408;SDS011;6775;49.574;11.170;2023-03-19T13:23:50;3.23;;;2.63;;
13408;SDS011;6775;49.574;11.170;2023-03-19T13:26:29;5.47;;;4.37;;
13408;SDS011;6775;49.574;11.170;2023-03-19T13:29:02;2.37;;;1.80;;
13408;SDS011;6775;49.574;11.170;2023-03-19T13:31:36;2.17;;;1.83;;
13408;SDS011;6775;49.574;11.170;2023-03-19T13:34:05;4.10;;;2.80;;
13408;SDS011;6775;49.574;11.170;2023-03-19T13:36:44;4.23;;;3.27;;
13408;SDS011;6775;49.574;11.170;2023-03-19T13:39:18;2.60;;;2.00;;
13408;SDS011;6775;49.574;11.170;2023-03-19T13:41:49;1.50;;;1.10;;
13408;SDS011;6775;49.574;11.170;2023-03-19T13:55:44;1.53;;;1.23;;
13408;SDS011;6775;49.574;11.170;2023-03-19T13:58:20;2.53;;;1.43;;
13408;SDS011;6775;49.574;11.170;2023-03-19T14:01:11;3.03;;;1.47;;
13408;SDS011;6775;49.574;11.170;2023-03-19T14:03:55;3.27;;;1.43;;
13408;SDS011;6775;49.574;11.170;2023-03-19T14:06:29;2.27;;;1.53;;
13408;SDS011;6775;49.574;11.170;2023-03-19T14:08:59;1.70;;;1.50;;
13408;SDS011;6775;49.574;11.170;2023-03-19T14:11:28;1.87;;;1.23;;
13408;SDS011;6775;49.574;11.170;2023-03-19T14:13:59;2.47;;;1.33;;
13408;SDS011;6775;49.574;11.170;2023-03-19T14:16:29;3.03;;;1.40;;
13408;SDS011;6775;49.574;11.170;2023-03-19T14:19:02;2.70;;;1.30;;
13408;SDS011;6775;49.574;11.170;2023-03-19T14:21:39;1.53;;;1.17;;
13408;SDS011;6775;49.574;11.170;2023-03-19T14:24:19;1.50;;;1.13;;
13408;SDS011;6775;49.574;11.170;2023-03-19T14:27:16;1.80;;;1.70;;
13408;SDS011;6775;49.574;11.170;2023-03-19T14:29:48;2.10;;;1.90;;
13408;SDS011;6775;49.574;11.170;2023-03-19T14:32:17;1.63;;;1.50;;
13408;SDS011;6775;49.574;11.170;2023-03-19T14:34:50;1.53;;;1.43;;
13408;SDS011;6775;49.574;11.170;2023-03-19T14:37:21;2.87;;;1.37;;
13408;SDS011;6775;49.574;11.170;2023-03-19T14:39:51;1.23;;;1.00;;
13408;SDS011;6775;49.574;11.170;2023-03-19T14:42:25;2.10;;;1.30;;
13408;SDS011;6775;49.574;11.170;2023-03-19T14:48:19;1.33;;;1.23;;
13408;SDS011;6775;49.574;11.170;2023-03-19T14:51:19;2.20;;;1.30;;
13408;SDS011;6775;49.574;11.170;2023-03-19T14:53:57;2.30;;;1.40;;
13408;SDS011;6775;49.574;11.170;2023-03-19T14:56:31;2.83;;;1.30;;
13408;SDS011;6775;49.574;11.170;2023-03-19T14:59:00;2.30;;;1.57;;
13408;SDS011;6775;49.574;11.170;2023-03-19T15:01:31;3.00;;;1.60;;
13408;SDS011;6775;49.574;11.170;2023-03-19T15:04:03;1.30;;;1.20;;
13408;SDS011;6775;49.574;11.170;2023-03-19T15:06:36;1.93;;;1.20;;
13408;SDS011;6775;49.574;11.170;2023-03-19T15:09:06;1.70;;;1.50;;
13408;SDS011;6775;49.574;11.170;2023-03-19T15:14:48;1.40;;;1.10;;
13408;SDS011;6775;49.574;11.170;2023-03-19T15:17:32;1.50;;;1.30;;
13408;SDS011;6775;49.574;11.170;2023-03-19T15:20:12;2.43;;;1.50;;
13408;SDS011;6775;49.574;11.170;2023-03-19T15:22:45;1.37;;;1.10;;
13408;SDS011;6775;49.574;11.170;2023-03-19T15:25:20;1.33;;;1.23;;
13408;SDS011;6775;49.574;11.170;2023-03-19T15:28:03;1.60;;;1.10;;